Time;durP1;ratioP1;P1;durP2;ratioP2;P2;SDS_P1;SDS_P2;PMS_P1;PMS_P2;Temp;Humidity;BMP_temperature;BMP_pressure;BME280_temperature;BME280_humidity;BME280_pressure;Samples;Min_cycle;Max_cycle;Signal;HPM_P1;HPM_P2
2023/08/23 00:01:34;;;;;;;9.33;8.57;;;20.40;99.90;;;;;;5112964;28;20163;-71
2023/08/23 00:04:00;;;;;;;8.37;7.77;;;20.40;99.90;;;;;;5113082;28;20171;-71
2023/08/23 00:06:26;;;;;;;7.90;7.40;;;20.30;99.90;;;;;;5112867;28;20684;-71
2023/08/23 00:08:51;;;;;;;8.70;7.40;;;20.30;99.90;;;;;;5113477;28;20293;-71
2023/08/23 00:11:17;;;;;;;8.47;7.77;;;20.30;99.90;;;;;;5111917;28;20210;-70
2023/08/23 00:13:43;;;;;;;8.77;7.77;;;20.40;99.90;;;;;;5112776;28;20726;-70
2023/08/23 00:16:08;;;;;;;8.00;7.30;;;20.40;99.90;;;;;;5113241;28;20175;-70
2023/08/23 00:18:34;;;;;;;8.30;7.70;;;20.40;99.90;;;;;;5112484;28;20175;-70
2023/08/23 00:21:00;;;;;;;7.17;6.03;;;20.40;99.90;;;;;;5118791;27;20649;-70
2023/08/23 00:23:26;;;;;;;6.80;6.30;;;20.40;99.90;;;;;;5133161;27;20539;-70
2023/08/23 00:25:51;;;;;;;8.00;7.17;;;20.40;99.90;;;;;;5133714;27;20174;-70
2023/08/23 00:28:19;;;;;;;7.23;6.63;;;20.40;99.90;;;;;;5132983;27;20265;-70
2023/08/23 00:30:55;;;;;;;7.60;6.90;;;20.30;99.90;;;;;;5133554;27;20556;-70
2023/08/23 00:33:21;;;;;;;7.33;6.70;;;20.30;99.90;;;;;;5111747;28;20972;-70
2023/08/23 00:35:47;;;;;;;6.73;6.20;;;20.20;99.90;;;;;;5113048;28;20420;-70
2023/08/23 00:38:13;;;;;;;7.70;7.10;;;20.10;99.90;;;;;;5109007;28;20894;-70
2023/08/23 00:40:39;;;;;;;7.60;7.10;;;20.10;99.90;;;;;;5092022;28;20459;-70
2023/08/23 00:43:07;;;;;;;8.40;7.63;;;20.10;99.90;;;;;;5093131;28;20414;-70
2023/08/23 00:45:37;;;;;;;9.43;7.83;;;20.00;99.90;;;;;;5092015;28;20180;-70
2023/08/23 00:48:03;;;;;;;8.63;7.80;;;20.00;99.90;;;;;;5092662;28;20418;-70
2023/08/23 00:50:33;;;;;;;8.20;7.60;;;20.00;99.90;;;;;;5095035;28;20425;-70
2023/08/23 00:52:59;;;;;;;8.63;7.97;;;19.90;99.90;;;;;;5115901;28;20495;-71
2023/08/23 00:55:25;;;;;;;9.10;8.23;;;19.90;99.90;;;;;;5112213;28;20411;-69
2023/08/23 00:57:52;;;;;;;9.27;8.20;;;19.80;99.90;;;;;;5112386;28;20776;-70
2023/08/23 01:00:18;;;;;;;8.33;7.60;;;19.90;99.90;;;;;;5112256;28;20394;-70
2023/08/23 01:02:44;;;;;;;8.70;8.07;;;19.80;99.90;;;;;;5112639;28;20500;-71
2023/08/23 01:05:11;;;;;;;9.30;8.40;;;19.80;99.90;;;;;;5112560;28;20532;-70
2023/08/23 01:08:13;;;;;;;9.87;9.07;;;19.80;99.90;;;;;;5112218;28;20484;-70
2023/08/23 01:10:53;;;;;;;9.80;8.80;;;19.80;99.90;;;;;;5107781;28;20554;-70
2023/08/23 01:13:33;;;;;;;9.53;8.73;;;19.80;99.90;;;;;;5112089;28;20485;-69
2023/08/23 01:16:03;;;;;;;9.07;8.27;;;19.80;99.90;;;;;;5112773;28;20390;-70
2023/08/23 01:18:30;;;;;;;8.60;7.90;;;19.70;99.90;;;;;;5111952;28;20413;-70
2023/08/23 01:20:58;;;;;;;8.53;7.70;;;19.70;99.90;;;;;;5114906;28;20457;-70
2023/08/23 01:23:25;;;;;;;9.30;8.40;;;19.70;99.90;;;;;;5125954;28;20470;-70
2023/08/23 01:25:52;;;;;;;9.70;8.90;;;19.70;99.90;;;;;;5112854;28;20466;-71
2023/08/23 01:28:19;;;;;;;10.30;9.30;;;19.60;99.90;;;;;;5110114;28;20908;-63
2023/08/23 01:30:46;;;;;;;10.40;9.37;;;19.70;99.90;;;;;;5112834;28;20473;-71
2023/08/23 01:33:28;;;;;;;9.17;8.47;;;19.70;99.90;;;;;;5112182;28;20526;-70
2023/08/23 01:36:05;;;;;;;9.47;8.67;;;19.70;99.90;;;;;;5112633;28;20434;-71
2023/08/23 01:38:33;;;;;;;12.43;9.40;;;19.70;99.90;;;;;;5111880;28;20752;-69
2023/08/23 01:41:00;;;;;;;10.37;9.67;;;19.60;99.90;;;;;;5114134;28;20892;-69
2023/08/23 01:43:26;;;;;;;10.43;9.40;;;19.60;99.90;;;;;;5113826;28;20447;-69
2023/08/23 01:45:52;;;;;;;11.20;10.20;;;19.60;99.90;;;;;;5116216;28;20409;-71
2023/08/23 01:48:17;;;;;;;9.17;8.40;;;19.60;99.90;;;;;;5116038;28;20401;-70
2023/08/23 01:50:43;;;;;;;9.00;8.40;;;19.60;99.90;;;;;;5120782;27;20542;-70
2023/08/23 01:53:09;;;;;;;8.83;8.20;;;19.60;99.90;;;;;;5136401;27;20203;-70
2023/08/23 01:55:35;;;;;;;9.80;8.83;;;19.60;99.90;;;;;;5126295;27;20667;-70
2023/08/23 01:58:00;;;;;;;9.17;8.27;;;19.70;99.90;;;;;;5116144;28;20168;-71
2023/08/23 02:00:26;;;;;;;8.20;7.70;;;19.70;99.90;;;;;;5115047;28;20241;-70
2023/08/23 02:02:52;;;;;;;8.00;7.40;;;19.70;99.90;;;;;;5114997;28;20225;-70
2023/08/23 02:05:17;;;;;;;8.93;8.17;;;19.60;99.90;;;;;;5114042;28;20186;-70
2023/08/23 02:07:43;;;;;;;8.53;7.83;;;19.50;99.90;;;;;;5094353;28;20190;-69
2023/08/23 02:10:09;;;;;;;9.07;8.30;;;19.50;99.90;;;;;;5112131;27;20184;-70
2023/08/23 02:12:35;;;;;;;7.70;7.20;;;19.50;99.90;;;;;;5094586;28;20701;-70
2023/08/23 02:15:00;;;;;;;7.70;7.20;;;19.50;99.90;;;;;;5095167;28;20174;-70
2023/08/23 02:17:26;;;;;;;12.13;7.40;;;19.50;99.90;;;;;;5094561;28;20179;-70
2023/08/23 02:19:52;;;;;;;8.63;8.13;;;19.50;99.90;;;;;;5098638;28;20176;-70
2023/08/23 02:22:18;;;;;;;8.07;7.27;;;19.50;99.90;;;;;;5133175;27;20589;-70
2023/08/23 02:24:43;;;;;;;8.57;7.87;;;19.50;99.90;;;;;;5135613;27;20174;-70
2023/08/23 02:27:09;;;;;;;8.07;7.47;;;19.50;99.90;;;;;;5135917;27;20597;-70
2023/08/23 02:29:35;;;;;;;8.50;7.90;;;19.50;99.90;;;;;;5131278;27;20662;-70
2023/08/23 02:32:00;;;;;;;7.80;7.13;;;19.40;99.90;;;;;;5115014;28;20179;-70
2023/08/23 02:34:26;;;;;;;8.47;7.87;;;19.40;99.90;;;;;;5113425;28;20278;-70
2023/08/23 02:36:52;;;;;;;8.10;7.47;;;19.40;99.90;;;;;;5115183;28;20168;-69
2023/08/23 02:39:18;;;;;;;8.17;7.47;;;19.40;99.90;;;;;;5115255;28;20163;-70
2023/08/23 02:41:44;;;;;;;6.73;6.33;;;19.40;99.90;;;;;;5114576;28;20215;-70
2023/08/23 02:44:10;;;;;;;8.77;7.93;;;19.40;99.90;;;;;;5113375;28;20898;-70
2023/08/23 02:46:35;;;;;;;8.17;7.60;;;19.40;99.90;;;;;;5114408;28;20297;-70
2023/08/23 02:49:01;;;;;;;7.67;7.17;;;19.40;99.90;;;;;;5114949;28;20611;-69
2023/08/23 02:51:27;;;;;;;9.10;8.50;;;19.40;99.90;;;;;;5127618;27;20220;-68
2023/08/23 02:53:52;;;;;;;7.47;6.87;;;19.40;99.90;;;;;;5127088;27;20202;-70
2023/08/23 02:56:18;;;;;;;7.90;7.20;;;19.30;99.90;;;;;;5114797;28;20610;-70
2023/08/23 02:58:44;;;;;;;8.13;7.43;;;19.40;99.90;;;;;;5094540;28;20269;-70
2023/08/23 03:01:10;;;;;;;7.80;6.97;;;19.30;99.90;;;;;;5094282;28;20172;-70
2023/08/23 03:03:35;;;;;;;8.30;7.60;;;19.30;99.90;;;;;;5126533;27;20707;-70
2023/08/23 03:06:01;;;;;;;8.40;7.87;;;19.20;99.90;;;;;;5101092;28;20211;-70
2023/08/23 03:08:27;;;;;;;8.40;7.80;;;19.30;99.90;;;;;;5113884;28;20182;-69
2023/08/23 03:11:03;;;;;;;8.57;8.03;;;19.20;99.90;;;;;;5114165;28;20398;-69
2023/08/23 03:13:30;;;;;;;8.60;8.00;;;19.20;99.90;;;;;;5113821;27;20196;-69
2023/08/23 03:15:56;;;;;;;8.57;7.87;;;19.20;99.90;;;;;;5114352;28;20912;-69
2023/08/23 03:18:22;;;;;;;8.77;8.17;;;19.20;99.90;;;;;;5102949;28;20457;-70
2023/08/23 03:20:51;;;;;;;8.90;8.30;;;19.20;99.90;;;;;;5117454;27;20175;-70
2023/08/23 03:23:18;;;;;;;9.40;8.50;;;19.20;99.90;;;;;;5119651;27;20961;-70
2023/08/23 03:25:48;;;;;;;8.17;7.67;;;19.20;99.90;;;;;;5113902;28;20408;-70
2023/08/23 03:28:14;;;;;;;8.43;7.73;;;19.10;99.90;;;;;;5114254;28;20397;-70
2023/08/23 03:30:40;;;;;;;8.87;8.10;;;19.10;99.90;;;;;;5113437;28;20949;-69
2023/08/23 03:33:06;;;;;;;8.97;8.17;;;19.10;99.90;;;;;;5113766;28;20484;-69
2023/08/23 03:35:33;;;;;;;8.30;7.60;;;19.10;99.90;;;;;;5110054;28;20902;-70
2023/08/23 03:37:58;;;;;;;8.97;8.10;;;19.10;99.90;;;;;;5111557;28;20650;-69
2023/08/23 03:40:24;;;;;;;7.67;7.17;;;19.10;99.90;;;;;;5113826;28;20414;-70
2023/08/23 03:42:50;;;;;;;7.20;6.70;;;19.10;99.90;;;;;;5097107;28;20180;-70
2023/08/23 03:45:17;;;;;;;8.40;7.70;;;19.10;99.90;;;;;;5094208;28;20207;-69
2023/08/23 03:47:44;;;;;;;7.87;7.17;;;19.10;99.90;;;;;;5092982;28;20168;-71
2023/08/23 03:50:10;;;;;;;7.73;7.13;;;19.10;99.90;;;;;;5104358;27;20420;-70
2023/08/23 03:52:36;;;;;;;7.30;6.80;;;19.00;99.90;;;;;;5133533;27;20400;-70
2023/08/23 03:55:02;;;;;;;7.47;6.93;;;19.00;99.90;;;;;;5132643;27;20409;-70
2023/08/23 03:57:28;;;;;;;8.13;7.40;;;19.00;99.90;;;;;;5095925;28;20237;-69
2023/08/23 03:59:53;;;;;;;8.33;7.53;;;19.00;99.90;;;;;;5093127;28;20395;-69
2023/08/23 04:02:20;;;;;;;7.60;7.10;;;19.10;99.90;;;;;;5097256;28;20203;-71
2023/08/23 04:04:46;;;;;;;6.80;6.13;;;19.00;99.90;;;;;;5093094;28;20172;-70
2023/08/23 04:07:14;;;;;;;8.00;7.30;;;19.00;99.90;;;;;;5110132;28;20466;-70
2023/08/23 04:09:40;;;;;;;7.43;6.93;;;19.00;99.90;;;;;;5107948;28;20212;-65
2023/08/23 04:12:07;;;;;;;8.27;7.40;;;19.00;99.90;;;;;;5111614;28;20405;-64
2023/08/23 04:14:32;;;;;;;8.37;7.27;;;19.00;99.90;;;;;;5108874;28;20492;-63
2023/08/23 04:16:59;;;;;;;8.20;7.60;;;18.90;99.90;;;;;;5112876;28;20756;-64
2023/08/23 04:19:26;;;;;;;9.00;8.40;;;18.90;99.90;;;;;;5105266;28;20172;-64
2023/08/23 04:21:51;;;;;;;8.53;7.93;;;18.90;99.90;;;;;;5092551;28;20472;-64
2023/08/23 04:24:17;;;;;;;8.50;7.80;;;18.90;99.90;;;;;;5105747;28;20449;-64
2023/08/23 04:26:43;;;;;;;8.23;7.70;;;18.90;99.90;;;;;;5110695;28;20497;-64
2023/08/23 04:29:09;;;;;;;8.43;7.83;;;18.90;99.90;;;;;;5111419;28;20414;-64
2023/08/23 04:31:35;;;;;;;8.63;7.93;;;18.80;99.90;;;;;;5096471;28;20414;-64
2023/08/23 04:34:04;;;;;;;9.50;8.60;;;18.80;99.90;;;;;;5095048;28;20231;-64
2023/08/23 04:36:31;;;;;;;8.33;7.63;;;18.80;99.90;;;;;;5109143;28;20627;-64
2023/08/23 04:38:57;;;;;;;8.57;7.77;;;18.80;99.90;;;;;;5109100;28;20425;-64
2023/08/23 04:41:22;;;;;;;9.10;8.30;;;18.80;99.90;;;;;;5107328;28;20470;-69
2023/08/23 04:43:48;;;;;;;9.43;8.73;;;18.80;99.90;;;;;;5109093;28;20417;-68
2023/08/23 04:46:16;;;;;;;9.57;8.50;;;18.80;99.90;;;;;;5112406;28;20168;-69
2023/08/23 04:48:42;;;;;;;9.70;9.00;;;18.80;99.90;;;;;;5121324;28;20293;-71
2023/08/23 04:51:10;;;;;;;8.73;8.03;;;18.80;99.90;;;;;;5103834;28;20891;-70
2023/08/23 04:53:36;;;;;;;8.63;8.03;;;18.70;99.90;;;;;;5108960;28;20199;-69
2023/08/23 04:56:02;;;;;;;9.63;8.93;;;18.70;99.90;;;;;;5112627;28;20405;-73
2023/08/23 04:58:31;;;;;;;9.70;8.73;;;18.60;99.90;;;;;;5103149;28;20240;-73
2023/08/23 05:01:05;;;;;;;8.50;7.73;;;18.60;99.90;;;;;;5108137;28;20171;-74
2023/08/23 05:03:31;;;;;;;9.53;7.67;;;18.80;99.90;;;;;;5110758;28;20432;-62
2023/08/23 05:06:01;;;;;;;10.67;9.67;;;19.00;99.90;;;;;;5111016;28;20538;-67
2023/08/23 05:08:28;;;;;;;8.47;7.90;;;19.20;99.90;;;;;;5109947;28;20421;-67
2023/08/23 05:10:55;;;;;;;7.83;7.23;;;19.40;99.90;;;;;;5109729;28;20417;-67
2023/08/23 05:13:22;;;;;;;8.20;7.63;;;19.60;99.90;;;;;;5108041;28;20450;-67
2023/08/23 05:15:57;;;;;;;8.60;8.00;;;19.70;99.90;;;;;;5097073;28;20448;-67
2023/08/23 05:18:23;;;;;;;9.63;8.83;;;19.80;99.90;;;;;;5128106;27;20407;-67
2023/08/23 05:20:57;;;;;;;9.40;8.70;;;19.90;99.90;;;;;;5109700;27;20501;-67
2023/08/23 05:23:23;;;;;;;9.93;8.97;;;20.10;99.90;;;;;;5106360;28;20481;-67
2023/08/23 05:25:51;;;;;;;9.10;8.30;;;20.20;99.90;;;;;;5113936;27;20428;-67
2023/08/23 05:28:18;;;;;;;9.23;8.30;;;20.30;99.90;;;;;;5118241;27;20417;-67
2023/08/23 05:30:44;;;;;;;9.13;8.33;;;20.40;99.90;;;;;;5114730;28;20425;-66
2023/08/23 05:33:10;;;;;;;9.37;8.40;;;20.50;99.90;;;;;;5096861;28;20474;-67
2023/08/23 05:35:35;;;;;;;187.83;147.90;;;20.60;99.90;;;;;;5100037;28;20843;-67
2023/08/23 05:38:01;;;;;;;211.23;153.97;;;20.60;99.90;;;;;;5096603;28;20184;-67
2023/08/23 05:40:27;;;;;;;15.30;13.93;;;20.70;99.90;;;;;;5115811;28;20271;-67
2023/08/23 05:42:53;;;;;;;10.63;9.73;;;20.80;99.90;;;;;;5113891;28;20504;-78
2023/08/23 05:45:19;;;;;;;10.40;9.60;;;20.90;99.90;;;;;;5115659;28;20187;-70
2023/08/23 05:47:44;;;;;;;10.17;9.47;;;20.70;99.90;;;;;;5114769;28;20171;-77
2023/08/23 05:50:10;;;;;;;9.77;8.90;;;20.60;99.90;;;;;;5103413;28;20267;-78
2023/08/23 05:52:36;;;;;;;10.00;9.10;;;20.40;99.90;;;;;;5094570;28;20237;-65
2023/08/23 05:55:01;;;;;;;11.20;10.20;;;20.30;99.90;;;;;;5116712;27;20181;-76
2023/08/23 05:57:32;;;;;;;11.73;10.70;;;20.20;99.90;;;;;;5135979;27;20576;-77
2023/08/23 05:59:58;;;;;;;11.17;10.17;;;20.10;99.90;;;;;;5130704;27;20780;-78
2023/08/23 06:02:24;;;;;;;11.03;10.13;;;19.80;99.90;;;;;;5136290;27;20396;-79
2023/08/23 06:04:49;;;;;;;10.40;9.33;;;19.70;99.90;;;;;;5135486;27;20182;-78
2023/08/23 06:07:15;;;;;;;16.87;10.40;;;19.60;99.90;;;;;;5135965;27;20522;-75
2023/08/23 06:09:41;;;;;;;30.93;14.43;;;19.50;99.90;;;;;;5135612;27;20585;-77
2023/08/23 06:12:07;;;;;;;26.47;12.10;;;19.50;99.90;;;;;;5135573;27;20182;-77
2023/08/23 06:14:33;;;;;;;20.63;12.10;;;19.50;99.90;;;;;;5135709;27;20456;-77
2023/08/23 06:16:58;;;;;;;22.73;12.10;;;19.50;99.90;;;;;;5135398;27;20171;-76
2023/08/23 06:19:24;;;;;;;14.47;10.93;;;19.50;99.90;;;;;;5136113;27;20171;-76
2023/08/23 06:21:50;;;;;;;11.43;10.20;;;19.40;99.90;;;;;;5135383;27;20178;-76
2023/08/23 06:24:15;;;;;;;14.97;10.43;;;19.50;99.90;;;;;;5135989;27;20179;-76
2023/08/23 06:26:43;;;;;;;11.60;9.77;;;19.50;99.90;;;;;;5135007;27;20618;-76
2023/08/23 06:29:09;;;;;;;11.30;10.10;;;19.50;99.90;;;;;;5132319;27;20168;-75
2023/08/23 06:31:35;;;;;;;11.70;10.20;;;19.60;99.90;;;;;;5135949;27;20434;-76
2023/08/23 06:34:01;;;;;;;10.60;9.60;;;19.60;99.90;;;;;;5135058;27;20692;-74
2023/08/23 06:36:26;;;;;;;11.00;9.80;;;19.60;99.90;;;;;;5130756;27;20198;-76
2023/08/23 06:38:53;;;;;;;13.30;9.70;;;19.70;99.90;;;;;;5135152;27;20202;-75
2023/08/23 06:41:18;;;;;;;12.57;9.20;;;19.70;99.90;;;;;;5135622;27;20182;-75
2023/08/23 06:43:46;;;;;;;10.53;9.43;;;19.80;99.90;;;;;;5135002;27;20891;-75
2023/08/23 06:46:12;;;;;;;10.60;9.63;;;19.80;99.90;;;;;;5135814;27;20171;-75
2023/08/23 06:48:38;;;;;;;10.57;9.67;;;19.80;99.90;;;;;;5134932;27;20409;-74
2023/08/23 06:51:03;;;;;;;12.43;10.27;;;19.80;99.90;;;;;;5135219;27;20174;-76
2023/08/23 06:53:31;;;;;;;12.03;11.03;;;19.90;99.90;;;;;;5135168;27;20744;-76
2023/08/23 06:55:57;;;;;;;10.87;9.80;;;19.80;99.90;;;;;;5134498;27;20229;-75
2023/08/23 06:58:23;;;;;;;10.43;9.70;;;19.80;99.90;;;;;;5135359;27;20432;-76
2023/08/23 07:00:48;;;;;;;11.13;10.03;;;19.80;99.90;;;;;;5134290;27;20185;-75
2023/08/23 07:03:14;;;;;;;11.57;10.47;;;19.90;99.90;;;;;;5135684;27;20179;-75
2023/08/23 07:05:40;;;;;;;9.97;9.13;;;20.00;99.90;;;;;;5131452;27;20621;-74
2023/08/23 07:08:06;;;;;;;11.63;9.80;;;20.00;99.90;;;;;;5135220;27;20179;-75
2023/08/23 07:10:32;;;;;;;10.20;9.40;;;20.10;99.90;;;;;;5135051;27;20872;-75
2023/08/23 07:12:58;;;;;;;11.07;9.93;;;20.10;99.90;;;;;;5134373;27;20523;-76
2023/08/23 07:15:23;;;;;;;11.63;10.43;;;20.20;99.90;;;;;;5134836;27;20182;-76
2023/08/23 07:17:49;;;;;;;10.90;9.90;;;20.30;99.90;;;;;;5134309;27;20190;-76
2023/08/23 07:20:15;;;;;;;12.17;11.00;;;20.30;99.90;;;;;;5130253;27;20267;-75
2023/08/23 07:22:42;;;;;;;12.13;10.80;;;20.30;99.90;;;;;;5131751;27;20216;-75
2023/08/23 07:25:08;;;;;;;13.07;11.77;;;20.40;99.90;;;;;;5134771;27;20411;-76
2023/08/23 07:27:34;;;;;;;12.10;10.90;;;20.50;99.90;;;;;;5134693;27;20412;-76
2023/08/23 07:30:00;;;;;;;13.43;11.93;;;20.50;99.90;;;;;;5134072;27;20457;-75
2023/08/23 07:32:30;;;;;;;14.73;11.20;;;20.50;99.90;;;;;;5134234;27;20935;-75
2023/08/23 07:34:58;;;;;;;14.30;11.63;;;20.60;99.90;;;;;;5133998;27;20182;-76
2023/08/23 07:37:24;;;;;;;12.97;11.77;;;20.60;99.90;;;;;;5134162;27;20412;-75
2023/08/23 07:39:50;;;;;;;12.67;11.37;;;20.60;99.90;;;;;;5133638;27;20401;-76
2023/08/23 07:42:15;;;;;;;11.87;10.77;;;20.70;99.90;;;;;;5133191;27;20174;-75
2023/08/23 07:44:41;;;;;;;11.53;10.53;;;20.70;99.90;;;;;;5133862;27;20614;-73
2023/08/23 07:47:07;;;;;;;12.37;10.20;;;20.80;99.90;;;;;;5134455;27;20247;-76
2023/08/23 07:49:32;;;;;;;11.53;9.83;;;20.80;99.90;;;;;;5134308;27;20178;-76
2023/08/23 07:51:58;;;;;;;13.10;9.53;;;20.90;99.90;;;;;;5128124;27;20175;-75
2023/08/23 07:54:24;;;;;;;9.90;9.00;;;21.00;99.90;;;;;;5134160;27;20251;-75
2023/08/23 07:56:50;;;;;;;9.97;9.03;;;21.10;99.90;;;;;;5133601;27;20170;-76
2023/08/23 07:59:15;;;;;;;10.63;9.57;;;21.20;99.90;;;;;;5134244;27;20183;-76
2023/08/23 08:01:41;;;;;;;12.43;10.10;;;21.20;99.90;;;;;;5133345;27;20163;-64
2023/08/23 08:04:07;;;;;;;10.30;9.20;;;21.30;99.90;;;;;;5134033;27;20183;-75
2023/08/23 08:06:32;;;;;;;10.10;8.97;;;21.50;99.90;;;;;;5133735;27;20672;-76
2023/08/23 08:08:58;;;;;;;10.10;9.10;;;21.50;99.90;;;;;;5133356;27;20213;-76
2023/08/23 08:11:24;;;;;;;9.40;8.60;;;21.60;99.90;;;;;;5133541;27;20179;-76
2023/08/23 08:13:50;;;;;;;9.10;8.40;;;21.70;99.90;;;;;;5132840;27;20218;-74
2023/08/23 08:16:15;;;;;;;8.40;7.70;;;21.80;99.90;;;;;;5133957;27;20622;-74
2023/08/23 08:18:43;;;;;;;8.50;7.70;;;21.90;99.90;;;;;;5133831;27;20210;-75
2023/08/23 08:21:09;;;;;;;8.73;7.80;;;22.10;99.90;;;;;;5127307;27;20183;-75
2023/08/23 08:23:35;;;;;;;8.17;7.23;;;22.20;99.90;;;;;;5131008;27;20542;-75
2023/08/23 08:26:01;;;;;;;8.20;7.60;;;22.30;99.90;;;;;;5133048;27;20444;-74
2023/08/23 08:28:27;;;;;;;8.27;7.67;;;22.40;99.90;;;;;;5133361;27;20614;-75
2023/08/23 08:30:52;;;;;;;8.53;7.80;;;22.50;99.90;;;;;;5133397;27;20453;-75
2023/08/23 08:33:19;;;;;;;7.70;7.10;;;22.60;99.90;;;;;;5133474;27;20548;-75
2023/08/23 08:35:45;;;;;;;7.77;7.07;;;22.80;99.90;;;;;;5128298;27;20666;-74
2023/08/23 08:38:10;;;;;;;6.70;6.13;;;22.90;99.90;;;;;;5133601;28;20393;-83
2023/08/23 08:40:37;;;;;;;7.50;6.10;;;23.10;99.90;;;;;;5133648;28;20170;-84
2023/08/23 08:43:03;;;;;;;6.80;6.30;;;23.20;99.90;;;;;;5132994;28;20534;-76
2023/08/23 08:45:30;;;;;;;11.17;10.17;;;23.30;99.90;;;;;;5133261;28;20891;-69
2023/08/23 08:47:55;;;;;;;9.80;8.57;;;23.50;99.90;;;;;;5132901;27;20429;-69
2023/08/23 08:50:22;;;;;;;8.83;8.23;;;23.70;99.90;;;;;;5129395;27;20448;-69
2023/08/23 08:52:52;;;;;;;8.10;7.40;;;23.90;99.90;;;;;;5118151;27;20186;-69
2023/08/23 08:55:21;;;;;;;7.90;7.20;;;24.10;99.90;;;;;;5116224;28;20505;-69
2023/08/23 08:57:52;;;;;;;28.63;24.40;;;24.20;99.90;;;;;;5116484;28;20891;-69
2023/08/23 09:00:21;;;;;;;12.37;11.27;;;24.30;99.90;;;;;;5116931;28;20903;-69
2023/08/23 09:02:47;;;;;;;7.13;6.53;;;24.40;99.90;;;;;;5116467;28;20462;-69
2023/08/23 09:05:15;;;;;;;8.23;7.43;;;24.40;99.90;;;;;;5116952;28;20789;-70
2023/08/23 09:07:41;;;;;;;11.60;10.60;;;24.40;99.90;;;;;;5116929;28;20397;-69
2023/08/23 09:10:07;;;;;;;11.33;10.23;;;24.50;99.90;;;;;;5116011;28;20406;-69
2023/08/23 09:12:33;;;;;;;6.70;6.20;;;24.60;99.90;;;;;;5116848;28;20429;-70
2023/08/23 09:15:06;;;;;;;8.73;7.60;;;24.70;99.90;;;;;;5116369;28;20432;-69
2023/08/23 09:17:35;;;;;;;7.03;6.40;;;24.80;99.90;;;;;;5127464;27;20219;-69
2023/08/23 09:20:06;;;;;;;7.30;6.60;;;24.90;99.90;;;;;;5134330;27;20429;-70
2023/08/23 09:22:33;;;;;;;10.00;9.13;;;25.00;99.90;;;;;;5135787;27;20420;-70
2023/08/23 09:25:00;;;;;;;9.40;8.60;;;25.10;99.90;;;;;;5135360;27;20435;-69
2023/08/23 09:27:26;;;;;;;8.60;7.57;;;25.20;99.90;;;;;;5137098;27;20808;-70
2023/08/23 09:29:57;;;;;;;6.50;5.90;;;25.20;99.90;;;;;;5136471;27;20393;-69
2023/08/23 09:32:25;;;;;;;7.37;6.73;;;25.30;99.90;;;;;;5137096;27;20225;-69
2023/08/23 09:34:50;;;;;;;7.80;7.10;;;25.40;99.90;;;;;;5130388;27;20472;-68
2023/08/23 09:37:17;;;;;;;7.53;6.83;;;25.50;99.90;;;;;;5136452;27;20887;-69
2023/08/23 09:39:43;;;;;;;7.30;5.77;;;25.60;99.90;;;;;;5130789;27;20181;-69
2023/08/23 09:42:13;;;;;;;6.40;5.80;;;25.70;99.90;;;;;;5134883;27;20503;-69
2023/08/23 09:44:45;;;;;;;6.00;5.40;;;25.90;99.90;;;;;;5136716;27;20618;-69
2023/08/23 09:47:17;;;;;;;15.90;11.97;;;26.00;99.90;;;;;;5135849;27;20404;-69
2023/08/23 09:49:44;;;;;;;20.37;16.70;;;26.10;99.90;;;;;;5135741;27;20750;-69
2023/08/23 09:52:11;;;;;;;20.47;18.00;;;26.20;99.90;;;;;;5135946;27;20404;-69
2023/08/23 09:54:53;;;;;;;22.17;19.83;;;26.30;99.90;;;;;;5136672;27;20779;-69
2023/08/23 09:57:21;;;;;;;11.37;10.20;;;26.30;99.90;;;;;;5136674;27;20393;-69
2023/08/23 09:59:48;;;;;;;20.77;16.03;;;26.20;99.90;;;;;;5136502;27;20397;-70
2023/08/23 10:02:17;;;;;;;12.20;7.93;;;26.30;99.90;;;;;;5135485;27;20899;-68
2023/08/23 10:04:43;;;;;;;6.57;5.97;;;26.30;99.90;;;;;;5117814;27;20410;-67
2023/08/23 10:07:13;;;;;;;7.07;6.33;;;26.30;99.90;;;;;;5114884;27;20401;-69
2023/08/23 10:09:40;;;;;;;9.70;8.90;;;26.40;99.90;;;;;;5115633;28;20409;-70
2023/08/23 10:12:08;;;;;;;11.67;10.57;;;26.50;99.90;;;;;;5114681;28;20398;-69
2023/08/23 10:14:37;;;;;;;11.80;10.70;;;26.70;99.90;;;;;;5112598;28;20449;-69
2023/08/23 10:17:05;;;;;;;7.20;6.70;;;26.80;99.90;;;;;;5114690;27;20497;-70
2023/08/23 10:19:32;;;;;;;11.30;10.40;;;26.90;99.60;;;;;;5096783;28;20745;-70
2023/08/23 10:21:58;;;;;;;7.60;6.87;;;27.00;99.90;;;;;;5114492;28;20404;-70
2023/08/23 10:24:34;;;;;;;36.53;32.93;;;27.00;98.40;;;;;;5115346;28;20433;-69
2023/08/23 10:27:07;;;;;;;103.20;91.00;;;27.10;99.10;;;;;;5113896;28;20402;-69
2023/08/23 10:29:36;;;;;;;7.80;7.20;;;27.20;99.10;;;;;;5112286;28;20527;-69
2023/08/23 10:32:10;;;;;;;14.50;13.30;;;27.30;98.20;;;;;;5114095;28;20479;-69
2023/08/23 10:34:40;;;;;;;10.37;9.47;;;27.30;97.90;;;;;;5111935;28;20819;-65
2023/08/23 10:37:16;;;;;;;10.57;9.63;;;27.30;98.20;;;;;;5113401;28;20785;-69
2023/08/23 10:39:50;;;;;;;9.97;9.07;;;27.10;98.40;;;;;;5113853;27;20524;-70
2023/08/23 10:42:17;;;;;;;9.57;8.67;;;26.80;99.30;;;;;;5115090;28;20722;-70
2023/08/23 10:44:53;;;;;;;8.10;7.40;;;26.90;99.40;;;;;;5114895;28;20501;-69
2023/08/23 10:47:19;;;;;;;8.10;7.40;;;27.10;99.00;;;;;;5114984;28;20393;-69
2023/08/23 10:49:46;;;;;;;6.17;5.67;;;26.90;98.20;;;;;;5114892;28;20733;-69
2023/08/23 10:52:12;;;;;;;7.67;6.83;;;27.00;99.90;;;;;;5114218;28;20410;-70
2023/08/23 10:54:39;;;;;;;5.93;5.53;;;27.10;98.30;;;;;;5114607;28;20531;-70
2023/08/23 10:57:05;;;;;;;7.30;6.80;;;27.10;98.70;;;;;;5114153;27;20412;-69
2023/08/23 10:59:31;;;;;;;4.77;4.57;;;27.20;97.80;;;;;;5114628;28;20414;-70
2023/08/23 11:01:57;;;;;;;5.93;5.53;;;27.30;97.40;;;;;;5113912;28;20168;-69
2023/08/23 11:04:23;;;;;;;6.37;5.87;;;27.40;97.60;;;;;;5113631;28;20186;-69
2023/08/23 11:06:50;;;;;;;5.40;4.93;;;27.30;97.10;;;;;;5134695;27;20251;-70
2023/08/23 11:09:16;;;;;;;4.30;4.00;;;27.20;96.60;;;;;;5134394;27;20458;-69
2023/08/23 11:11:42;;;;;;;5.10;4.80;;;27.10;96.60;;;;;;5134755;27;20409;-70
2023/08/23 11:14:08;;;;;;;5.10;4.70;;;27.20;96.60;;;;;;5132664;27;20452;-70
2023/08/23 11:16:35;;;;;;;6.40;6.00;;;27.20;96.50;;;;;;5134979;27;20182;-70
2023/08/23 11:19:05;;;;;;;6.80;6.30;;;27.30;96.40;;;;;;5133988;27;20185;-68
2023/08/23 11:21:32;;;;;;;6.30;5.90;;;27.10;96.40;;;;;;5135080;27;20471;-69
2023/08/23 11:24:03;;;;;;;5.57;5.17;;;27.00;96.40;;;;;;5134201;27;20764;-69
2023/08/23 11:26:36;;;;;;;5.77;5.47;;;27.20;96.10;;;;;;5135198;27;20396;-70
2023/08/23 11:29:03;;;;;;;5.23;5.00;;;27.30;96.50;;;;;;5133885;27;20393;-69
2023/08/23 11:31:31;;;;;;;7.23;6.53;;;27.50;94.70;;;;;;5134495;27;20409;-69
2023/08/23 11:33:59;;;;;;;37.20;33.50;;;27.60;95.40;;;;;;5133423;27;20563;-75
2023/08/23 11:36:26;;;;;;;5.50;5.20;;;27.70;95.70;;;;;;5131026;27;20436;-76
2023/08/23 11:38:53;;;;;;;5.30;5.00;;;27.90;94.40;;;;;;5134824;27;20857;-76
2023/08/23 11:41:30;;;;;;;5.70;5.30;;;28.10;92.10;;;;;;5134499;27;20401;-76
2023/08/23 11:43:56;;;;;;;4.70;4.40;;;28.30;92.50;;;;;;5133789;27;20396;-75
2023/08/23 11:46:22;;;;;;;4.87;4.57;;;28.40;88.90;;;;;;5134630;27;20488;-76
2023/08/23 11:48:48;;;;;;;4.90;4.60;;;28.60;90.60;;;;;;5127086;27;20629;-75
2023/08/23 11:51:13;;;;;;;5.23;4.83;;;28.80;90.70;;;;;;5133668;27;20179;-75
2023/08/23 11:53:50;;;;;;;5.47;5.00;;;28.90;90.30;;;;;;5134171;27;20555;-75
2023/08/23 11:56:16;;;;;;;6.50;6.00;;;29.10;91.60;;;;;;5133616;27;20186;-76
2023/08/23 11:58:41;;;;;;;5.90;5.47;;;29.20;89.10;;;;;;5134162;27;20876;-75
2023/08/23 12:01:07;;;;;;;4.87;4.57;;;29.20;90.80;;;;;;5133619;27;20185;-76
2023/08/23 12:03:33;;;;;;;5.97;5.50;;;29.30;90.00;;;;;;5134356;27;20178;-75
2023/08/23 12:05:59;;;;;;;4.90;4.60;;;29.50;89.10;;;;;;5133205;27;20167;-75
2023/08/23 12:08:24;;;;;;;5.47;4.97;;;29.60;87.80;;;;;;5133979;27;20514;-75
2023/08/23 12:10:50;;;;;;;5.73;5.23;;;29.60;85.30;;;;;;5134328;27;20174;-75
2023/08/23 12:13:16;;;;;;;5.60;5.30;;;29.70;84.70;;;;;;5133207;27;20241;-73
2023/08/23 12:15:42;;;;;;;6.80;6.30;;;29.70;85.10;;;;;;5131165;27;20193;-72
2023/08/23 12:18:08;;;;;;;6.40;6.10;;;29.80;83.60;;;;;;5130854;27;20179;-73
2023/08/23 12:20:33;;;;;;;7.03;6.53;;;29.80;83.10;;;;;;5133817;27;20446;-73
2023/08/23 12:22:59;;;;;;;7.10;6.60;;;29.80;84.80;;;;;;5133419;27;20183;-73
2023/08/23 12:25:25;;;;;;;6.23;5.83;;;29.80;82.90;;;;;;5133390;27;20247;-73
2023/08/23 12:27:51;;;;;;;6.90;6.50;;;29.80;84.80;;;;;;5134245;27;20611;-72
2023/08/23 12:30:16;;;;;;;5.93;5.53;;;29.80;85.00;;;;;;5133130;27;20175;-73
2023/08/23 12:32:42;;;;;;;6.37;6.00;;;29.70;84.00;;;;;;5133302;27;20591;-73
2023/08/23 12:35:09;;;;;;;6.30;6.00;;;29.70;82.00;;;;;;5132757;27;20195;-76
2023/08/23 12:37:34;;;;;;;6.00;5.60;;;29.70;79.60;;;;;;5129675;27;20424;-75
2023/08/23 12:40:00;;;;;;;6.57;6.07;;;29.70;84.10;;;;;;5131275;28;20174;-62
2023/08/23 12:42:26;;;;;;;7.63;7.03;;;29.70;83.20;;;;;;5133128;28;20269;-72